General Abelardo L. Rodríguez International Airport
MMTJ : now visible

Airfield :











YOU CAN JOIN US ON...

 
LOGIN :

Register | Disclaimer

   EN    FR    IT 

 









Legend :    VFR   Marginal VFR   IFR   Intensive IFR   Very Intensive IFR
Visi :
Ceiling :
>= 8 km
>= 3000ft
5 to 8 km
1000 to 3000 ft
1500m to 5 km
500 to 1000 ft
800 to 1500m
200 to 500 ft
< 800m
< 200 ft
Symbols :   Thunderstorms  Fog  Heavy snow  Heavy precipitations  Wind > 20 kt







- Airport Elevation : 489 ft
- IATA code : TIJ


MMTJ - General Abelardo L. Rodríguez International

CURRENT METAR :
  • 172150Z 26019KT 10SM BKN032 12/06 A3010 RMK 8/400 HZY

EXPIRED METARs :
  • 172054Z 29017KT 10SM BKN032 13/04 A3012 RMK SLP202 57007 965 8/400 HZY
  • 171946Z 28013KT 10SM BKN032 13/05 A3015 RMK 8/400 HZY

TAF TAF MMTJ
Valid from the 17 at 18:00 until the 19 at 00:00 UTC


171656Z 1718/1824 30015KT P6SM VC -RA BKN030 BKN050 TX14/1721Z TN10/1812Z
FM180000 24018KT P6SM -RA BKN030 BKN050 BKN200
TEMPO 1800/1804 3SM SHRA BKN025CB
FM180600 27020KT P6SM RA BKN020CB OVC070
FM181200 34015KT P6SM VC -RA BKN020 BKN070
FM181800 27015KT 6SM HZ BKN020 BKN080
MMFR FIR / North America



MET'MAP, your aeronautical weather chart ! - Copyright ORBIFLY December 2007 - Disclaimer

ORBIFLY MET'MAP TEAM :

Programming & Development : Alexandra Zaïnal
Concept & Development : Baudouin d'Aumeries
Co-Development & Prog : Marc-Olivier Méhu
Technical & hardware support : Manuel Goepfert

Contact : metmap@orbifly.com




SOURCES & CREDITS :

   NOAA       Earth
Advisory